createdAt,value
2023-02-12T00:00:45.067Z,-2.50
2023-02-12T00:01:45.090Z,-2.50
2023-02-12T00:02:45.133Z,-2.48
2023-02-12T00:03:45.052Z,-2.48
2023-02-12T00:04:45.018Z,-2.46
2023-02-12T00:05:45.007Z,-2.43
2023-02-12T00:06:45.018Z,-2.43
2023-02-12T00:07:44.988Z,-2.40
2023-02-12T00:08:44.998Z,-2.32
2023-02-12T00:09:44.957Z,-2.23
2023-02-12T00:10:44.951Z,-2.13
2023-02-12T00:11:44.944Z,-2.06
2023-02-12T00:12:44.966Z,-2.03
2023-02-12T00:13:44.916Z,-2.03
2023-02-12T00:14:44.928Z,-2.09
2023-02-12T00:15:44.946Z,-2.13
2023-02-12T00:16:44.928Z,-2.23
2023-02-12T00:17:44.886Z,-2.30
2023-02-12T00:18:44.876Z,-2.34
2023-02-12T00:19:44.857Z,-2.35
2023-02-12T00:20:44.875Z,-2.37
2023-02-12T00:21:44.844Z,-2.42
2023-02-12T00:22:44.828Z,-2.43
2023-02-12T00:23:44.820Z,-2.46
2023-02-12T00:24:44.819Z,-2.49
2023-02-12T00:25:44.797Z,-2.43
2023-02-12T00:26:44.827Z,-2.34
2023-02-12T00:27:44.780Z,-2.23
2023-02-12T00:28:44.770Z,-2.16
2023-02-12T00:29:45.070Z,-2.16
2023-02-12T00:30:44.847Z,-2.18
2023-02-12T00:31:44.778Z,-2.21
2023-02-12T00:32:44.728Z,-2.26
2023-02-12T00:33:44.709Z,-2.30
2023-02-12T00:34:45.541Z,-2.32
2023-02-12T00:35:44.716Z,-2.37
2023-02-12T00:36:44.685Z,-2.30
2023-02-12T00:37:44.669Z,-2.30
2023-02-12T00:38:44.984Z,-2.27
2023-02-12T00:39:45.482Z,-2.32
2023-02-12T00:40:44.654Z,-2.37
2023-02-12T00:41:44.719Z,-2.43
2023-02-12T00:42:44.630Z,-2.50
2023-02-12T00:43:44.622Z,-2.55
2023-02-12T00:44:44.622Z,-2.64
2023-02-12T00:45:44.581Z,-2.70
2023-02-12T00:46:44.643Z,-2.73
2023-02-12T00:47:44.913Z,-2.73
2023-02-12T00:48:44.565Z,-2.74
2023-02-12T00:49:44.541Z,-2.73
2023-02-12T00:50:44.559Z,-2.71
2023-02-12T00:51:45.350Z,-2.73
2023-02-12T00:52:44.535Z,-2.73
2023-02-12T00:53:44.511Z,-2.74
2023-02-12T00:54:44.552Z,-2.81
2023-02-12T00:55:44.490Z,-2.82
2023-02-12T00:56:45.447Z,-2.84
2023-02-12T00:57:44.486Z,-2.84
2023-02-12T00:58:44.482Z,-2.84
2023-02-12T00:59:44.450Z,-2.86
2023-02-12T01:00:44.453Z,-2.88
2023-02-12T01:01:44.454Z,-2.88
2023-02-12T01:02:44.447Z,-2.88
2023-02-12T01:03:44.407Z,-2.88
2023-02-12T01:04:44.506Z,-2.88
2023-02-12T01:05:45.225Z,-2.86
2023-02-12T01:06:44.386Z,-2.84
2023-02-12T01:07:44.365Z,-2.78
2023-02-12T01:08:44.378Z,-2.77
2023-02-12T01:09:44.378Z,-2.73
2023-02-12T01:10:44.931Z,-2.73
2023-02-12T01:11:44.329Z,-2.77
2023-02-12T01:12:44.355Z,-2.78
2023-02-12T01:13:44.314Z,-2.78
2023-02-12T01:14:44.320Z,-2.78
2023-02-12T01:15:44.482Z,-2.74
2023-02-12T01:16:44.292Z,-2.73
2023-02-12T01:17:44.274Z,-2.77
2023-02-12T01:18:44.276Z,-2.81
2023-02-12T01:19:44.269Z,-2.78
2023-02-12T01:20:44.249Z,-2.81
2023-02-12T01:21:44.230Z,-2.79
2023-02-12T01:22:44.220Z,-2.79
2023-02-12T01:23:45.010Z,-2.81
2023-02-12T01:24:44.224Z,-2.77
2023-02-12T01:25:44.194Z,-2.78
2023-02-12T01:26:44.184Z,-2.81
2023-02-12T01:27:44.161Z,-2.85
2023-02-12T01:28:44.962Z,-2.88
2023-02-12T01:29:44.142Z,-2.91
2023-02-12T01:30:44.213Z,-2.89
2023-02-12T01:31:44.286Z,-2.89
2023-02-12T01:32:44.202Z,-2.86
2023-02-12T01:33:44.112Z,-2.81
2023-02-12T01:34:44.102Z,-2.78
2023-02-12T01:35:44.082Z,-2.79
2023-02-12T01:36:44.141Z,-2.79
2023-02-12T01:37:44.073Z,-2.79
2023-02-12T01:38:44.080Z,-2.81
2023-02-12T01:39:44.054Z,-2.85
2023-02-12T01:40:44.061Z,-2.89
2023-02-12T01:41:44.045Z,-2.82
2023-02-12T01:42:44.026Z,-2.77
2023-02-12T01:43:44.032Z,-2.73
2023-02-12T01:44:44.012Z,-2.74
2023-02-12T01:45:44.422Z,-2.77
2023-02-12T01:46:44.090Z,-2.81
2023-02-12T01:47:43.969Z,-2.86
2023-02-12T01:48:43.966Z,-2.94
2023-02-12T01:49:43.984Z,-2.99
2023-02-12T01:50:43.961Z,-3.00
2023-02-12T01:51:43.939Z,-2.89
2023-02-12T01:52:43.924Z,-2.85
2023-02-12T01:53:43.904Z,-2.81
2023-02-12T01:54:43.904Z,-2.71
2023-02-12T01:55:43.894Z,-2.67
2023-02-12T01:56:43.891Z,-2.68
2023-02-12T01:57:44.058Z,-2.71
2023-02-12T01:58:43.876Z,-2.73
2023-02-12T01:59:43.837Z,-2.64
2023-02-12T02:00:43.846Z,-2.58
2023-02-12T02:01:43.937Z,-2.56
2023-02-12T02:02:43.931Z,-2.52
2023-02-12T02:03:43.807Z,-2.58
2023-02-12T02:04:43.807Z,-2.63
2023-02-12T02:05:43.792Z,-2.66
2023-02-12T02:06:43.820Z,-2.71
2023-02-12T02:07:43.764Z,-2.73
2023-02-12T02:08:43.768Z,-2.74
2023-02-12T02:09:43.752Z,-2.77
2023-02-12T02:10:43.750Z,-2.79
2023-02-12T02:11:43.726Z,-2.84
2023-02-12T02:12:43.715Z,-2.85
2023-02-12T02:13:43.766Z,-2.82
2023-02-12T02:14:43.705Z,-2.85
2023-02-12T02:15:43.752Z,-2.84
2023-02-12T02:16:43.684Z,-2.85
2023-02-12T02:17:43.675Z,-2.88
2023-02-12T02:18:43.672Z,-2.92
2023-02-12T02:19:43.655Z,-2.97
2023-02-12T02:20:43.628Z,-3.02
2023-02-12T02:21:43.631Z,-3.02
2023-02-12T02:22:43.628Z,-3.03
2023-02-12T02:23:43.630Z,-3.00
2023-02-12T02:24:43.599Z,-3.00
2023-02-12T02:25:43.583Z,-2.99
2023-02-12T02:26:43.559Z,-2.99
2023-02-12T02:27:43.613Z,-3.00
2023-02-12T02:28:43.545Z,-3.02
2023-02-12T02:29:43.545Z,-2.96
2023-02-12T02:30:43.564Z,-2.99
2023-02-12T02:31:43.617Z,-3.02
2023-02-12T02:32:43.495Z,-3.05
2023-02-12T02:33:43.503Z,-3.07
2023-02-12T02:34:43.506Z,-3.09
2023-02-12T02:35:43.485Z,-3.12
2023-02-12T02:36:59.219Z,-3.17
2023-02-12T02:37:44.475Z,-3.18
2023-02-12T02:38:43.472Z,-3.18
2023-02-12T02:39:43.440Z,-3.21
2023-02-12T02:40:43.431Z,-3.21
2023-02-12T02:41:43.417Z,-3.25
2023-02-12T02:42:43.418Z,-3.28
2023-02-12T02:43:43.407Z,-3.30
2023-02-12T02:44:43.391Z,-3.33
2023-02-12T02:45:43.391Z,-3.30
2023-02-12T02:46:43.419Z,-3.23
2023-02-12T02:47:43.357Z,-3.03
2023-02-12T02:48:43.379Z,-2.96
2023-02-12T02:49:43.352Z,-2.86
2023-02-12T02:50:43.330Z,-2.78
2023-02-12T02:51:43.435Z,-2.73
2023-02-12T02:52:43.299Z,-2.73
2023-02-12T02:53:43.301Z,-2.74
2023-02-12T02:54:43.292Z,-2.78
2023-02-12T02:55:43.286Z,-2.82
2023-02-12T02:56:43.265Z,-2.86
2023-02-12T02:57:43.268Z,-2.91
2023-02-12T02:58:43.251Z,-2.92
2023-02-12T02:59:43.238Z,-2.94
2023-02-12T03:00:43.285Z,-2.99
2023-02-12T03:01:43.247Z,-3.03
2023-02-12T03:02:43.253Z,-3.09
2023-02-12T03:03:43.197Z,-3.15
2023-02-12T03:04:43.198Z,-3.20
2023-02-12T03:05:43.188Z,-3.23
2023-02-12T03:06:43.170Z,-3.21
2023-02-12T03:07:43.154Z,-3.24
2023-02-12T03:08:43.139Z,-3.25
2023-02-12T03:09:43.172Z,-3.25
2023-02-12T03:10:43.154Z,-3.25
2023-02-12T03:11:43.110Z,-3.30
2023-02-12T03:12:43.112Z,-3.36
2023-02-12T03:13:43.093Z,-3.38
2023-02-12T03:14:43.082Z,-3.41
2023-02-12T03:15:43.083Z,-3.43
2023-02-12T03:16:43.166Z,-3.38
2023-02-12T03:17:43.062Z,-3.30
2023-02-12T03:18:43.040Z,-3.23
2023-02-12T03:19:43.040Z,-3.20
2023-02-12T03:20:43.022Z,-3.17
2023-02-12T03:21:43.034Z,-3.18
2023-02-12T03:22:43.009Z,-3.23
2023-02-12T03:23:43.004Z,-3.18
2023-02-12T03:24:42.995Z,-3.18
2023-02-12T03:25:42.973Z,-3.20
2023-02-12T03:26:42.993Z,-3.21
2023-02-12T03:27:42.967Z,-3.21
2023-02-12T03:28:42.944Z,-3.17
2023-02-12T03:29:42.936Z,-3.18
2023-02-12T03:30:42.956Z,-3.15
2023-02-12T03:31:43.175Z,-3.07
2023-02-12T03:32:42.896Z,-3.03
2023-02-12T03:33:42.899Z,-2.97
2023-02-12T03:34:42.895Z,-2.92
2023-02-12T03:35:42.883Z,-2.94
2023-02-12T03:36:42.857Z,-2.88
2023-02-12T03:37:42.867Z,-2.86
2023-02-12T03:38:42.844Z,-2.84
2023-02-12T03:39:42.837Z,-2.85
2023-02-12T03:40:42.829Z,-2.88
2023-02-12T03:41:42.820Z,-2.94
2023-02-12T03:42:42.819Z,-2.96
2023-02-12T03:43:42.809Z,-2.97
2023-02-12T03:44:42.779Z,-3.03
2023-02-12T03:45:42.940Z,-3.05
2023-02-12T03:46:42.759Z,-3.05
2023-02-12T03:47:42.765Z,-3.03
2023-02-12T03:48:42.758Z,-3.09
2023-02-12T03:49:42.746Z,-3.15
2023-02-12T03:50:42.932Z,-3.17
2023-02-12T03:51:42.734Z,-3.24
2023-02-12T03:52:42.690Z,-3.27
2023-02-12T03:53:42.729Z,-3.28
2023-02-12T03:54:42.762Z,-3.23
2023-02-12T03:55:42.687Z,-3.20
2023-02-12T03:56:42.667Z,-3.18
2023-02-12T03:57:42.701Z,-3.23
2023-02-12T03:58:42.637Z,-3.25
2023-02-12T03:59:42.648Z,-3.27
2023-02-12T04:00:42.633Z,-3.27
2023-02-12T04:01:42.798Z,-3.31
2023-02-12T04:02:42.600Z,-3.39
2023-02-12T04:03:42.616Z,-3.46
2023-02-12T04:04:42.638Z,-3.52
2023-02-12T04:05:42.575Z,-3.57
2023-02-12T04:06:42.555Z,-3.62
2023-02-12T04:07:42.556Z,-3.63
2023-02-12T04:08:42.534Z,-3.69
2023-02-12T04:09:42.785Z,-3.69
2023-02-12T04:10:42.518Z,-3.67
2023-02-12T04:11:42.508Z,-3.69
2023-02-12T04:12:42.496Z,-3.72
2023-02-12T04:13:42.511Z,-3.71
2023-02-12T04:14:42.475Z,-3.67
2023-02-12T04:15:42.474Z,-3.64
2023-02-12T04:16:42.500Z,-3.60
2023-02-12T04:17:42.461Z,-3.59
2023-02-12T04:18:42.443Z,-3.67
2023-02-12T04:19:42.436Z,-3.69
2023-02-12T04:20:42.416Z,-3.67
2023-02-12T04:21:42.417Z,-3.69
2023-02-12T04:22:42.385Z,-3.72
2023-02-12T04:23:42.385Z,-3.64
2023-02-12T04:24:42.368Z,-3.64
2023-02-12T04:25:42.385Z,-3.66
2023-02-12T04:26:42.358Z,-3.62
2023-02-12T04:27:42.606Z,-3.62
2023-02-12T04:28:42.340Z,-3.60
2023-02-12T04:29:42.329Z,-3.54
2023-02-12T04:30:42.371Z,-3.53
2023-02-12T04:31:43.249Z,-3.46
2023-02-12T04:32:42.317Z,-3.38
2023-02-12T04:33:42.291Z,-3.35
2023-02-12T04:34:42.271Z,-3.28
2023-02-12T04:35:42.361Z,-3.24
2023-02-12T04:36:42.252Z,-3.21
2023-02-12T04:37:42.264Z,-3.17
2023-02-12T04:38:42.237Z,-3.15
2023-02-12T04:39:42.281Z,-3.14
2023-02-12T04:40:42.217Z,-3.09
2023-02-12T04:41:42.213Z,-3.06
2023-02-12T04:42:42.205Z,-3.06
2023-02-12T04:43:42.194Z,-3.09
2023-02-12T04:44:42.178Z,-3.10
2023-02-12T04:45:42.202Z,-3.14
2023-02-12T04:46:42.166Z,-3.15
2023-02-12T04:47:42.156Z,-3.21
2023-02-12T04:48:42.137Z,-3.25
2023-02-12T04:49:42.132Z,-3.31
2023-02-12T04:50:42.139Z,-3.39
2023-02-12T04:51:42.106Z,-3.43
2023-02-12T04:52:42.116Z,-3.49
2023-02-12T04:53:42.136Z,-3.53
2023-02-12T04:54:42.088Z,-3.57
2023-02-12T04:55:42.084Z,-3.59
2023-02-12T04:56:42.054Z,-3.59
2023-02-12T04:57:42.090Z,-3.62
2023-02-12T04:58:42.822Z,-3.63
2023-02-12T04:59:42.030Z,-3.64
2023-02-12T05:00:42.016Z,-3.67
2023-02-12T05:01:42.094Z,-3.67
2023-02-12T05:02:42.375Z,-3.69
2023-02-12T05:03:42.005Z,-3.72
2023-02-12T05:04:42.013Z,-3.72
2023-02-12T05:05:41.973Z,-3.72
2023-02-12T05:06:41.947Z,-3.69
2023-02-12T05:07:41.956Z,-3.72
2023-02-12T05:08:41.938Z,-3.71
2023-02-12T05:09:41.929Z,-3.72
2023-02-12T05:10:41.908Z,-3.75
2023-02-12T05:11:41.921Z,-3.75
2023-02-12T05:12:41.891Z,-3.75
2023-02-12T05:13:41.918Z,-3.72
2023-02-12T05:14:41.899Z,-3.71
2023-02-12T05:15:42.155Z,-3.72
2023-02-12T05:16:41.881Z,-3.67
2023-02-12T05:17:41.842Z,-3.67
2023-02-12T05:18:41.829Z,-3.75
2023-02-12T05:19:41.830Z,-3.82
2023-02-12T05:20:41.876Z,-3.82
2023-02-12T05:21:41.808Z,-3.83
2023-02-12T05:22:41.800Z,-3.88
2023-02-12T05:23:41.815Z,-3.91
2023-02-12T05:24:41.770Z,-3.93
2023-02-12T05:25:41.771Z,-3.97
2023-02-12T05:26:41.760Z,-3.97
2023-02-12T05:27:41.750Z,-3.96
2023-02-12T05:28:41.789Z,-3.96
2023-02-12T05:29:41.747Z,-3.97
2023-02-12T05:30:41.734Z,-4.00
2023-02-12T05:31:41.845Z,-4.00
2023-02-12T05:32:41.686Z,-4.03
2023-02-12T05:33:41.682Z,-4.06
2023-02-12T05:34:41.673Z,-4.10
2023-02-12T05:35:41.673Z,-4.11
2023-02-12T05:36:41.654Z,-4.14
2023-02-12T05:37:41.669Z,-4.15
2023-02-12T05:38:41.630Z,-4.12
2023-02-12T05:39:41.620Z,-3.94
2023-02-12T05:40:41.603Z,-3.88
2023-02-12T05:41:41.619Z,-3.81
2023-02-12T05:42:41.581Z,-3.76
2023-02-12T05:43:41.590Z,-3.76
2023-02-12T05:44:41.560Z,-3.75
2023-02-12T05:45:41.566Z,-3.72
2023-02-12T05:46:41.565Z,-3.72
2023-02-12T05:47:41.551Z,-3.75
2023-02-12T05:48:41.521Z,-3.81
2023-02-12T05:49:41.522Z,-3.81
2023-02-12T05:50:41.501Z,-3.71
2023-02-12T05:51:41.512Z,-3.71
2023-02-12T05:52:41.480Z,-3.69
2023-02-12T05:53:41.484Z,-3.69
2023-02-12T05:54:41.489Z,-3.75
2023-02-12T05:55:42.467Z,-3.79
2023-02-12T05:56:41.446Z,-3.83
2023-02-12T05:57:41.558Z,-3.88
2023-02-12T05:58:41.442Z,-3.90
2023-02-12T05:59:41.428Z,-3.91
2023-02-12T06:00:41.398Z,-3.96
2023-02-12T06:01:41.405Z,-3.99
2023-02-12T06:02:41.421Z,-4.01
2023-02-12T06:03:41.482Z,-3.99
2023-02-12T06:04:41.373Z,-3.96
2023-02-12T06:05:41.372Z,-3.93
2023-02-12T06:06:41.350Z,-3.96
2023-02-12T06:07:41.340Z,-3.93
2023-02-12T06:08:41.343Z,-3.90
2023-02-12T06:09:41.338Z,-3.90
2023-02-12T06:10:41.312Z,-3.90
2023-02-12T06:11:41.301Z,-3.88
2023-02-12T06:12:41.434Z,-3.85
2023-02-12T06:13:41.289Z,-3.88
2023-02-12T06:14:41.293Z,-3.86
2023-02-12T06:15:41.317Z,-3.88
2023-02-12T06:16:41.329Z,-3.83
2023-02-12T06:17:41.262Z,-3.85
2023-02-12T06:18:41.233Z,-3.86
2023-02-12T06:19:41.225Z,-3.85
2023-02-12T06:20:41.413Z,-3.82
2023-02-12T06:21:41.210Z,-3.79
2023-02-12T06:22:41.191Z,-3.78
2023-02-12T06:23:41.193Z,-3.76
2023-02-12T06:24:41.181Z,-3.79
2023-02-12T06:25:41.632Z,-3.83
2023-02-12T06:26:41.191Z,-3.83
2023-02-12T06:27:41.134Z,-3.90
2023-02-12T06:28:41.205Z,-3.91
2023-02-12T06:29:41.970Z,-3.96
2023-02-12T06:30:41.108Z,-3.96
2023-02-12T06:31:41.206Z,-3.90
2023-02-12T06:32:41.144Z,-3.88
2023-02-12T06:33:41.134Z,-3.91
2023-02-12T06:34:41.068Z,-3.93
2023-02-12T06:35:41.067Z,-3.94
2023-02-12T06:36:41.888Z,-3.96
2023-02-12T06:37:41.068Z,-3.97
2023-02-12T06:38:41.039Z,-3.97
2023-02-12T06:39:41.026Z,-3.91
2023-02-12T06:40:41.021Z,-3.93
2023-02-12T06:41:41.019Z,-3.88
2023-02-12T06:42:41.001Z,-3.82
2023-02-12T06:43:41.046Z,-3.76
2023-02-12T06:44:40.980Z,-3.71
2023-02-12T06:45:40.968Z,-3.62
2023-02-12T06:46:41.151Z,-3.59
2023-02-12T06:47:40.984Z,-3.56
2023-02-12T06:48:40.965Z,-3.54
2023-02-12T06:49:40.951Z,-3.53
2023-02-12T06:50:40.922Z,-3.52
2023-02-12T06:51:40.908Z,-3.53
2023-02-12T06:52:40.903Z,-3.53
2023-02-12T06:53:40.881Z,-3.53
2023-02-12T06:54:40.872Z,-3.52
2023-02-12T06:55:40.877Z,-3.49
2023-02-12T06:56:40.894Z,-3.45
2023-02-12T06:57:40.869Z,-3.39
2023-02-12T06:58:40.912Z,-3.36
2023-02-12T06:59:40.864Z,-3.28
2023-02-12T07:00:40.882Z,-3.23
2023-02-12T07:01:40.804Z,-3.18
2023-02-12T07:02:40.795Z,-3.14
2023-02-12T07:03:40.821Z,-3.06
2023-02-12T07:04:40.786Z,-2.92
2023-02-12T07:05:40.753Z,-2.88
2023-02-12T07:06:40.759Z,-2.85
2023-02-12T07:07:40.732Z,-2.84
2023-02-12T07:08:40.737Z,-2.81
2023-02-12T07:09:40.713Z,-2.74
2023-02-12T07:10:40.715Z,-2.71
2023-02-12T07:11:40.732Z,-2.73
2023-02-12T07:12:40.707Z,-2.70
2023-02-12T07:13:40.673Z,-2.58
2023-02-12T07:14:40.677Z,-2.48
2023-02-12T07:15:40.665Z,-2.40
2023-02-12T07:16:40.777Z,-2.37
2023-02-12T07:17:40.649Z,-2.34
2023-02-12T07:18:40.640Z,-2.34
2023-02-12T07:19:40.615Z,-2.35
2023-02-12T07:20:40.607Z,-2.32
2023-02-12T07:21:40.600Z,-2.30
2023-02-12T07:22:40.593Z,-2.30
2023-02-12T07:23:40.592Z,-2.27
2023-02-12T07:24:40.583Z,-2.27
2023-02-12T07:25:40.546Z,-2.24
2023-02-12T07:26:40.549Z,-2.20
2023-02-12T07:27:40.543Z,-2.20
2023-02-12T07:28:41.187Z,-2.16
2023-02-12T07:29:40.521Z,-2.13
2023-02-12T07:30:42.585Z,-2.09
2023-02-12T07:31:40.563Z,-2.06
2023-02-12T07:32:40.488Z,-2.00
2023-02-12T07:33:41.295Z,-1.94
2023-02-12T07:34:40.475Z,-1.85
2023-02-12T07:35:40.477Z,-1.82
2023-02-12T07:36:41.255Z,-1.80
2023-02-12T07:37:41.241Z,-1.74
2023-02-12T07:38:40.431Z,-1.70
2023-02-12T07:39:40.414Z,-1.69
2023-02-12T07:40:40.402Z,-1.62
2023-02-12T07:41:40.388Z,-1.62
2023-02-12T07:42:40.436Z,-1.61
2023-02-12T07:43:40.379Z,-1.58
2023-02-12T07:44:40.368Z,-1.52
2023-02-12T07:45:40.436Z,-1.51
2023-02-12T07:46:40.364Z,-1.48
2023-02-12T07:47:40.340Z,-1.40
2023-02-12T07:48:40.320Z,-1.34
2023-02-12T07:49:41.117Z,-1.27
2023-02-12T07:50:40.316Z,-1.17
2023-02-12T07:51:40.289Z,-1.07
2023-02-12T07:52:40.292Z,-0.91
2023-02-12T07:53:40.278Z,-0.73
2023-02-12T07:54:40.275Z,-0.58
2023-02-12T07:55:40.301Z,-0.49
2023-02-12T07:56:40.273Z,-0.42
2023-02-12T07:57:40.246Z,-0.34
2023-02-12T07:58:40.247Z,-0.28
2023-02-12T07:59:42.161Z,-0.23
2023-02-12T08:00:41.020Z,-0.19
2023-02-12T08:01:40.184Z,-0.16
2023-02-12T08:02:40.186Z,-0.11
2023-02-12T08:03:40.170Z,-0.10
2023-02-12T08:04:40.534Z,-0.03
2023-02-12T08:05:40.162Z,0.04
2023-02-12T08:06:40.144Z,0.10
2023-02-12T08:07:40.132Z,0.15
2023-02-12T08:08:40.123Z,0.24
2023-02-12T08:09:40.211Z,0.41
2023-02-12T08:10:40.112Z,0.58
2023-02-12T08:11:40.087Z,0.70
2023-02-12T08:12:40.088Z,0.78
2023-02-12T08:13:40.075Z,0.86
2023-02-12T08:14:40.063Z,0.90
2023-02-12T08:15:40.046Z,0.91
2023-02-12T08:16:40.071Z,0.96
2023-02-12T08:17:40.903Z,0.98
2023-02-12T08:18:40.026Z,1.00
2023-02-12T08:19:40.032Z,1.08
2023-02-12T08:20:40.042Z,1.11
2023-02-12T08:21:39.976Z,1.11
2023-02-12T08:22:39.976Z,1.18
2023-02-12T08:23:39.966Z,1.22
2023-02-12T08:24:39.957Z,1.26
2023-02-12T08:25:39.966Z,1.30
2023-02-12T08:26:39.926Z,1.33
2023-02-12T08:27:39.923Z,1.37
2023-02-12T08:28:39.922Z,1.41
2023-02-12T08:29:39.917Z,1.44
2023-02-12T08:30:39.931Z,1.51
2023-02-12T08:31:39.902Z,1.58
2023-02-12T08:32:39.869Z,1.62
2023-02-12T08:33:39.859Z,1.69
2023-02-12T08:34:39.849Z,1.81
2023-02-12T08:35:39.839Z,1.87
2023-02-12T08:36:39.832Z,1.95
2023-02-12T08:37:39.800Z,2.02
2023-02-12T08:38:39.819Z,2.12
2023-02-12T08:39:39.815Z,2.23
2023-02-12T08:40:39.856Z,2.30
2023-02-12T08:41:39.760Z,2.39
2023-02-12T08:42:39.761Z,2.49
2023-02-12T08:43:39.746Z,2.57
2023-02-12T08:44:39.749Z,2.67
2023-02-12T08:45:39.767Z,2.72
2023-02-12T08:46:39.726Z,2.81
2023-02-12T08:47:39.868Z,2.85
2023-02-12T08:48:39.712Z,2.89
2023-02-12T08:49:39.688Z,2.90
2023-02-12T08:50:39.679Z,2.97
2023-02-12T08:51:39.658Z,3.02
2023-02-12T08:52:40.543Z,2.99
2023-02-12T08:53:39.658Z,2.95
2023-02-12T08:54:39.638Z,2.85
2023-02-12T08:55:39.625Z,2.78
2023-02-12T08:56:39.609Z,2.71
2023-02-12T08:57:39.605Z,2.61
2023-02-12T08:58:39.587Z,2.63
2023-02-12T08:59:39.583Z,2.69
2023-02-12T09:00:40.550Z,2.67
2023-02-12T09:01:40.161Z,2.74
2023-02-12T09:02:39.579Z,2.85
2023-02-12T09:03:39.551Z,2.90
2023-02-12T09:04:39.528Z,2.82
2023-02-12T09:05:39.507Z,2.82
2023-02-12T09:06:39.519Z,2.84
2023-02-12T09:07:39.503Z,2.78
2023-02-12T09:08:39.506Z,2.77
2023-02-12T09:09:39.476Z,2.82
2023-02-12T09:10:39.470Z,2.89
2023-02-12T09:11:39.445Z,2.89
2023-02-12T09:12:39.436Z,2.92
2023-02-12T09:13:39.428Z,2.97
2023-02-12T09:14:39.460Z,3.05
2023-02-12T09:15:39.419Z,3.15
2023-02-12T09:16:39.438Z,3.28
2023-02-12T09:17:39.541Z,3.40
2023-02-12T09:18:39.383Z,3.55
2023-02-12T09:19:39.418Z,3.68
2023-02-12T09:20:39.458Z,3.70
2023-02-12T09:21:39.349Z,3.69
2023-02-12T09:22:39.341Z,3.69
2023-02-12T09:23:39.326Z,3.78
2023-02-12T09:24:39.334Z,3.83
2023-02-12T09:25:39.305Z,3.75
2023-02-12T09:26:39.310Z,3.87
2023-02-12T09:27:39.283Z,3.93
2023-02-12T09:28:39.410Z,4.11
2023-02-12T09:29:39.265Z,4.29
2023-02-12T09:30:39.301Z,4.32
2023-02-12T09:31:39.388Z,4.36
2023-02-12T09:32:39.241Z,4.55
2023-02-12T09:33:39.214Z,4.66
2023-02-12T09:34:39.231Z,4.65
2023-02-12T09:35:39.203Z,4.80
2023-02-12T09:36:39.195Z,4.80
2023-02-12T09:37:39.171Z,4.66
2023-02-12T09:38:39.165Z,4.62
2023-02-12T09:39:39.153Z,4.67
2023-02-12T09:40:39.145Z,4.85
2023-02-12T09:41:39.135Z,4.94
2023-02-12T09:42:39.131Z,4.77
2023-02-12T09:43:39.109Z,4.84
2023-02-12T09:44:39.138Z,4.92
2023-02-12T09:45:39.086Z,4.96
2023-02-12T09:46:39.143Z,4.96
2023-02-12T09:47:39.097Z,5.13
2023-02-12T09:48:39.062Z,5.36
2023-02-12T09:49:39.045Z,5.54
2023-02-12T09:50:39.067Z,5.74
2023-02-12T09:51:39.069Z,5.89
2023-02-12T09:52:39.029Z,6.14
2023-02-12T09:53:39.019Z,6.36
2023-02-12T09:54:39.224Z,6.55
2023-02-12T09:55:39.006Z,6.55
2023-02-12T09:56:38.982Z,6.69
2023-02-12T09:57:38.961Z,6.73
2023-02-12T09:58:39.211Z,6.64
2023-02-12T09:59:38.986Z,6.49
2023-02-12T10:00:38.950Z,6.41
2023-02-12T10:01:39.004Z,6.44
2023-02-12T10:02:38.945Z,6.49
2023-02-12T10:03:38.904Z,6.37
2023-02-12T10:04:46.132Z,6.43
2023-02-12T10:05:39.888Z,6.38
2023-02-12T10:06:38.880Z,6.30
2023-02-12T10:07:38.864Z,6.36
2023-02-12T10:08:38.876Z,6.31
2023-02-12T10:09:38.865Z,6.48
2023-02-12T10:10:38.863Z,6.54
2023-02-12T10:11:38.986Z,6.73
2023-02-12T10:12:38.824Z,6.84
2023-02-12T10:13:38.793Z,6.88
2023-02-12T10:14:38.810Z,6.92
2023-02-12T10:15:38.837Z,7.06
2023-02-12T10:16:38.796Z,7.02
2023-02-12T10:17:38.753Z,7.03
2023-02-12T10:18:38.764Z,7.21
2023-02-12T10:19:38.750Z,7.32
2023-02-12T10:20:41.155Z,7.28
2023-02-12T10:21:38.727Z,7.12
2023-02-12T10:22:51.380Z,6.95
2023-02-12T10:23:39.692Z,6.97
2023-02-12T10:24:38.702Z,6.91
2023-02-12T10:25:38.679Z,7.02
2023-02-12T10:26:38.674Z,7.13
2023-02-12T10:27:38.647Z,7.06
2023-02-12T10:28:38.655Z,6.94
2023-02-12T10:29:38.633Z,6.94
2023-02-12T10:30:38.657Z,6.97
2023-02-12T10:31:38.774Z,7.13
2023-02-12T10:32:38.603Z,7.35
2023-02-12T10:33:39.200Z,7.50
2023-02-12T10:34:39.394Z,7.68
2023-02-12T10:35:38.666Z,8.00
2023-02-12T10:36:38.554Z,8.12
2023-02-12T10:37:38.541Z,8.36
2023-02-12T10:38:39.343Z,8.18
2023-02-12T10:39:38.503Z,8.37
2023-02-12T10:40:38.520Z,8.50
2023-02-12T10:41:38.572Z,8.66
2023-02-12T10:42:38.493Z,8.70
2023-02-12T10:43:38.485Z,8.76
2023-02-12T10:44:38.471Z,8.79
2023-02-12T10:45:38.443Z,8.50
2023-02-12T10:46:39.356Z,8.47
2023-02-12T10:47:38.444Z,8.58
2023-02-12T10:48:38.414Z,8.74
2023-02-12T10:49:38.413Z,8.98
2023-02-12T10:50:38.394Z,8.95
2023-02-12T10:51:38.387Z,8.92
2023-02-12T10:52:38.377Z,9.13
2023-02-12T10:53:38.368Z,9.17
2023-02-12T10:54:38.351Z,9.20
2023-02-12T10:55:38.361Z,9.32
2023-02-12T10:56:38.336Z,9.47
2023-02-12T10:57:38.336Z,9.58
2023-02-12T10:58:38.314Z,9.36
2023-02-12T10:59:38.298Z,9.40
2023-02-12T11:00:38.289Z,9.10
2023-02-12T11:01:38.391Z,8.74
2023-02-12T11:02:38.280Z,8.58
2023-02-12T11:03:38.260Z,8.89
2023-02-12T11:04:38.289Z,9.26
2023-02-12T11:05:38.246Z,9.57
2023-02-12T11:06:38.216Z,9.84
2023-02-12T11:07:38.208Z,9.94
2023-02-12T11:08:38.188Z,10.09
2023-02-12T11:09:38.189Z,10.26
2023-02-12T11:10:38.174Z,10.22
2023-02-12T11:11:38.170Z,10.17
2023-02-12T11:12:38.173Z,10.04
2023-02-12T11:13:38.141Z,10.08
2023-02-12T11:14:38.129Z,10.25
2023-02-12T11:15:38.138Z,10.47
2023-02-12T11:16:38.116Z,10.40
2023-02-12T11:17:38.135Z,10.60
2023-02-12T11:18:38.090Z,10.91
2023-02-12T11:19:38.088Z,11.21
2023-02-12T11:20:38.070Z,11.19
2023-02-12T11:21:38.079Z,11.43
2023-02-12T11:22:38.046Z,11.60
2023-02-12T11:23:38.064Z,11.76
2023-02-12T11:24:38.185Z,11.69
2023-02-12T11:25:38.022Z,11.99
2023-02-12T11:26:37.996Z,11.75
2023-02-12T11:27:38.614Z,11.60
2023-02-12T11:28:38.212Z,11.60
2023-02-12T11:29:37.998Z,12.02
2023-02-12T11:30:37.966Z,11.83
2023-02-12T11:31:38.126Z,11.94
2023-02-12T11:32:38.767Z,12.05
2023-02-12T11:33:37.928Z,12.12
2023-02-12T11:34:37.911Z,11.99
2023-02-12T11:35:37.929Z,11.62
2023-02-12T11:36:37.951Z,11.58
2023-02-12T11:37:38.711Z,11.86
2023-02-12T11:38:37.888Z,12.23
2023-02-12T11:39:37.876Z,12.65
2023-02-12T11:40:37.860Z,12.85
2023-02-12T11:41:38.662Z,12.93
2023-02-12T11:42:38.442Z,13.05
2023-02-12T11:43:37.837Z,12.79
2023-02-12T11:44:37.812Z,12.50
2023-02-12T11:45:37.834Z,12.38
2023-02-12T11:46:38.615Z,11.75
2023-02-12T11:47:37.976Z,10.91
2023-02-12T11:48:38.748Z,10.81
2023-02-12T11:49:37.786Z,10.81
2023-02-12T11:50:37.755Z,10.91
2023-02-12T11:51:38.536Z,10.99
2023-02-12T11:52:37.736Z,11.24
2023-02-12T11:53:37.738Z,11.11
2023-02-12T11:54:37.703Z,11.21
2023-02-12T11:55:37.706Z,11.22
2023-02-12T11:56:37.717Z,11.25
2023-02-12T11:57:37.688Z,11.06
2023-02-12T11:58:37.660Z,11.19
2023-02-12T11:59:37.653Z,11.29
2023-02-12T12:00:37.718Z,11.28
2023-02-12T12:01:37.664Z,11.21
2023-02-12T12:02:37.609Z,11.17
2023-02-12T12:03:37.637Z,10.96
2023-02-12T12:04:37.602Z,11.02
2023-02-12T12:05:37.590Z,11.00
2023-02-12T12:06:37.578Z,11.29
2023-02-12T12:07:37.562Z,11.57
2023-02-12T12:08:37.544Z,11.49
2023-02-12T12:09:38.351Z,11.51
2023-02-12T12:10:37.544Z,11.85
2023-02-12T12:11:37.532Z,11.94
2023-02-12T12:12:37.504Z,12.07
2023-02-12T12:13:37.505Z,12.17
2023-02-12T12:14:37.484Z,12.57
2023-02-12T12:15:37.516Z,12.42
2023-02-12T12:16:37.505Z,12.49
2023-02-12T12:17:37.465Z,12.34
2023-02-12T12:18:37.456Z,12.04
2023-02-12T12:19:37.442Z,11.91
2023-02-12T12:20:37.508Z,12.14
2023-02-12T12:21:37.431Z,12.31
2023-02-12T12:22:37.411Z,12.37
2023-02-12T12:23:37.390Z,12.29
2023-02-12T12:24:37.376Z,12.29
2023-02-12T12:25:37.367Z,12.02
2023-02-12T12:26:37.350Z,12.16
2023-02-12T12:27:37.369Z,12.39
2023-02-12T12:28:37.402Z,12.64
2023-02-12T12:29:37.332Z,12.72
2023-02-12T12:30:37.394Z,12.62
2023-02-12T12:31:38.342Z,12.52
2023-02-12T12:32:37.294Z,12.47
2023-02-12T12:33:37.291Z,12.39
2023-02-12T12:34:37.273Z,12.50
2023-02-12T12:35:37.263Z,12.67
2023-02-12T12:36:37.243Z,13.14
2023-02-12T12:37:37.244Z,13.36
2023-02-12T12:38:37.233Z,13.51
2023-02-12T12:39:37.225Z,13.60
2023-02-12T12:40:37.273Z,13.67
2023-02-12T12:41:37.411Z,13.29
2023-02-12T12:42:37.185Z,13.14
2023-02-12T12:43:37.186Z,13.22
2023-02-12T12:44:37.188Z,13.55
2023-02-12T12:45:37.961Z,13.79
2023-02-12T12:46:37.147Z,13.82
2023-02-12T12:47:37.138Z,13.05
2023-02-12T12:48:37.122Z,12.24
2023-02-12T12:49:37.250Z,11.69
2023-02-12T12:50:37.100Z,11.61
2023-02-12T12:51:37.102Z,11.90
2023-02-12T12:52:37.089Z,12.13
2023-02-12T12:53:37.079Z,12.07
2023-02-12T12:54:37.455Z,12.10
2023-02-12T12:55:37.492Z,12.39
2023-02-12T12:56:37.035Z,12.47
2023-02-12T12:57:37.042Z,12.53
2023-02-12T12:58:37.022Z,12.50